createdAt,value
2018-05-15T00:02:04.643Z,1.00
2018-05-15T00:04:38.431Z,1.00
2018-05-15T00:07:12.184Z,1.00
2018-05-15T00:09:45.968Z,1.00
2018-05-15T00:12:20.814Z,1.00
2018-05-15T00:14:55.952Z,1.00
2018-05-15T00:17:31.367Z,1.00
2018-05-15T00:20:06.831Z,1.00
2018-05-15T00:22:41.200Z,1.00
2018-05-15T00:25:15.691Z,1.00
2018-05-15T00:27:53.419Z,1.00
2018-05-15T00:30:27.984Z,1.00
2018-05-15T00:33:01.838Z,1.00
2018-05-15T00:35:37.827Z,1.00
2018-05-15T00:38:12.300Z,1.00
2018-05-15T00:40:46.165Z,1.00
2018-05-15T00:43:20.789Z,1.00
2018-05-15T00:45:57.575Z,1.00
2018-05-15T00:48:33.547Z,1.00
2018-05-15T00:51:07.205Z,1.00
2018-05-15T00:53:41.912Z,1.00
2018-05-15T00:56:16.987Z,1.00
2018-05-15T00:58:51.656Z,1.00
2018-05-15T01:01:26.283Z,1.00
2018-05-15T01:04:04.226Z,1.00
2018-05-15T01:06:38.629Z,1.00
2018-05-15T01:09:13.155Z,1.00
2018-05-15T01:11:47.640Z,1.00
2018-05-15T01:14:22.108Z,1.00
2018-05-15T01:16:55.886Z,1.00
2018-05-15T01:19:29.523Z,1.00
2018-05-15T01:22:04.639Z,1.00
2018-05-15T01:24:39.158Z,1.00
2018-05-15T01:27:12.896Z,1.00
2018-05-15T01:29:46.586Z,1.00
2018-05-15T01:32:20.430Z,1.00
2018-05-15T01:34:54.096Z,1.00
2018-05-15T01:37:27.948Z,1.00
2018-05-15T01:40:02.470Z,1.00
2018-05-15T01:42:37.190Z,1.00
2018-05-15T01:45:10.994Z,1.00
2018-05-15T01:47:45.624Z,1.00
2018-05-15T01:50:20.821Z,1.00
2018-05-15T01:52:56.354Z,1.00
2018-05-15T01:55:32.456Z,1.00
2018-05-15T01:58:06.946Z,1.00
2018-05-15T02:00:43.298Z,1.00
2018-05-15T02:03:16.987Z,1.00
2018-05-15T02:05:51.206Z,1.00
2018-05-15T02:08:26.153Z,1.00
2018-05-15T02:11:00.884Z,1.00
2018-05-15T02:13:35.979Z,1.00
2018-05-15T02:16:11.735Z,1.00
2018-05-15T02:18:45.829Z,1.00
2018-05-15T02:21:20.556Z,1.00
2018-05-15T02:23:54.289Z,1.00
2018-05-15T02:26:28.095Z,1.00
2018-05-15T02:29:01.899Z,1.00
2018-05-15T02:31:35.711Z,1.00
2018-05-15T02:34:09.407Z,1.00
2018-05-15T02:36:44.015Z,1.00
2018-05-15T02:39:18.606Z,1.00
2018-05-15T02:41:52.462Z,1.00
2018-05-15T02:44:26.304Z,1.00
2018-05-15T02:47:00.040Z,1.00
2018-05-15T02:49:34.560Z,1.00
2018-05-15T02:52:08.270Z,1.00
2018-05-15T02:54:41.962Z,1.00
2018-05-15T02:57:15.815Z,1.00
2018-05-15T02:59:49.588Z,1.00
2018-05-15T03:02:23.435Z,1.00
2018-05-15T03:04:58.017Z,1.00
2018-05-15T03:07:31.825Z,1.00
2018-05-15T03:10:05.665Z,1.00
2018-05-15T03:12:39.396Z,1.00
2018-05-15T03:15:13.211Z,1.00
2018-05-15T03:17:46.915Z,1.00
2018-05-15T03:20:21.048Z,1.00
2018-05-15T03:22:54.740Z,1.00
2018-05-15T03:25:29.071Z,1.00
2018-05-15T03:28:02.715Z,1.00
2018-05-15T03:30:36.461Z,1.00
2018-05-15T03:33:10.264Z,1.00
2018-05-15T03:35:44.010Z,1.00
2018-05-15T03:38:17.727Z,1.00
2018-05-15T03:40:51.478Z,1.00
2018-05-15T03:43:25.183Z,1.00
2018-05-15T03:45:59.818Z,1.00
2018-05-15T03:48:34.512Z,1.00
2018-05-15T03:51:09.405Z,1.00
2018-05-15T03:53:43.420Z,1.00
2018-05-15T03:56:17.319Z,1.00
2018-05-15T03:58:51.240Z,1.00
2018-05-15T04:01:36.727Z,1.00
2018-05-15T04:04:22.479Z,1.00
2018-05-15T04:07:09.410Z,1.00
2018-05-15T04:09:43.305Z,1.00
2018-05-15T04:12:17.104Z,1.00
2018-05-15T04:14:51.876Z,1.00
2018-05-15T04:17:26.651Z,1.00
2018-05-15T04:20:00.749Z,1.00
2018-05-15T04:22:34.514Z,1.00
2018-05-15T04:25:08.183Z,1.00
2018-05-15T04:27:42.677Z,1.00
2018-05-15T04:30:16.513Z,1.00
2018-05-15T04:32:50.296Z,1.00
2018-05-15T04:35:24.281Z,1.00
2018-05-15T04:37:57.937Z,1.00
2018-05-15T04:40:31.681Z,1.00
2018-05-15T04:43:06.536Z,1.00
2018-05-15T04:45:41.117Z,1.00
2018-05-15T04:48:17.674Z,1.00
2018-05-15T04:50:51.421Z,1.00
2018-05-15T04:53:25.282Z,1.00
2018-05-15T04:55:59.326Z,1.00
2018-05-15T04:58:33.191Z,1.00
2018-05-15T05:01:07.526Z,1.00
2018-05-15T05:03:41.360Z,1.00
2018-05-15T05:06:15.174Z,1.00
2018-05-15T05:08:49.567Z,1.00
2018-05-15T05:11:23.165Z,1.00
2018-05-15T05:13:57.413Z,1.00
2018-05-15T05:16:33.354Z,1.00
2018-05-15T05:19:06.925Z,1.00
2018-05-15T05:21:41.508Z,1.00
2018-05-15T05:24:16.072Z,1.00
2018-05-15T05:26:49.846Z,1.00
2018-05-15T05:29:24.206Z,1.00
2018-05-15T05:31:58.796Z,1.00
2018-05-15T05:34:32.491Z,1.00
2018-05-15T05:37:06.091Z,1.00
2018-05-15T05:39:39.884Z,1.00
2018-05-15T05:42:13.616Z,1.00
2018-05-15T05:44:47.397Z,1.00
2018-05-15T05:47:21.281Z,1.00
2018-05-15T05:49:55.050Z,1.00
2018-05-15T05:52:28.807Z,1.00
2018-05-15T05:55:02.559Z,1.00
2018-05-15T05:57:41.799Z,1.00
2018-05-15T06:00:15.698Z,1.00
2018-05-15T06:02:49.403Z,1.00
2018-05-15T06:05:29.270Z,1.00
2018-05-15T06:08:04.651Z,1.00
2018-05-15T06:10:39.212Z,1.00
2018-05-15T06:13:25.634Z,1.00
2018-05-15T06:16:00.249Z,1.00
2018-05-15T06:18:35.020Z,1.00
2018-05-15T06:21:09.611Z,1.00
2018-05-15T06:23:43.311Z,1.00
2018-05-15T06:26:17.009Z,1.00
2018-05-15T06:28:50.667Z,1.00
2018-05-15T06:31:25.872Z,1.00
2018-05-15T06:34:00.122Z,1.00
2018-05-15T06:36:37.302Z,1.00
2018-05-15T06:39:12.682Z,1.00
2018-05-15T06:41:47.539Z,1.00
2018-05-15T06:44:22.274Z,1.00
2018-05-15T06:46:57.071Z,1.00
2018-05-15T06:49:30.841Z,1.00
2018-05-15T06:52:05.742Z,1.00
2018-05-15T06:54:39.491Z,1.00
2018-05-15T06:57:14.051Z,1.00
2018-05-15T06:59:49.375Z,1.00
2018-05-15T07:02:23.252Z,1.00
2018-05-15T07:04:58.812Z,1.00
2018-05-15T07:07:34.543Z,1.00
2018-05-15T07:10:08.213Z,1.00
2018-05-15T07:12:42.938Z,1.00
2018-05-15T07:15:16.531Z,1.00
2018-05-15T07:17:51.386Z,1.00
2018-05-15T07:20:26.371Z,1.00
2018-05-15T07:23:00.274Z,1.00
2018-05-15T07:25:36.848Z,1.00
2018-05-15T07:28:10.937Z,1.00
2018-05-15T07:30:45.414Z,1.00
2018-05-15T07:33:20.017Z,1.00
2018-05-15T07:35:54.431Z,1.00
2018-05-15T07:38:28.150Z,1.00
2018-05-15T07:41:02.371Z,1.00
2018-05-15T07:43:36.931Z,1.00
2018-05-15T07:46:10.764Z,1.00
2018-05-15T07:48:44.820Z,1.00
2018-05-15T07:51:18.570Z,1.00
2018-05-15T07:53:52.415Z,1.00
2018-05-15T07:56:26.147Z,1.00
2018-05-15T07:58:59.715Z,1.00
2018-05-15T08:01:33.459Z,1.00
2018-05-15T08:04:08.630Z,1.00
2018-05-15T08:06:42.402Z,1.00
2018-05-15T08:09:17.567Z,1.00
2018-05-15T08:11:51.362Z,1.00
2018-05-15T08:14:26.859Z,1.00
2018-05-15T08:19:42.359Z,1.00
2018-05-15T08:22:16.283Z,1.00
2018-05-15T08:24:50.031Z,1.00
2018-05-15T08:27:24.652Z,1.00
2018-05-15T08:29:59.994Z,1.00
2018-05-15T08:32:33.841Z,1.00
2018-05-15T08:35:08.935Z,1.00
2018-05-15T08:37:43.501Z,1.00
2018-05-15T08:40:18.253Z,1.00
2018-05-15T08:42:51.987Z,1.00
2018-05-15T08:45:25.906Z,1.00
2018-05-15T08:47:59.719Z,1.00
2018-05-15T08:50:33.323Z,1.00
2018-05-15T08:53:07.159Z,1.00
2018-05-15T08:55:41.295Z,1.00
2018-05-15T08:58:15.599Z,1.00
2018-05-15T09:00:51.101Z,1.00
2018-05-15T09:03:24.892Z,1.00
2018-05-15T09:06:00.306Z,1.00
2018-05-15T09:08:34.345Z,1.00
2018-05-15T09:11:08.661Z,1.00
2018-05-15T09:13:44.271Z,1.00
2018-05-15T09:16:17.935Z,1.00
2018-05-15T09:18:52.526Z,1.00
2018-05-15T09:21:27.739Z,1.00
2018-05-15T09:24:01.843Z,1.00
2018-05-15T09:26:36.388Z,1.00
2018-05-15T09:29:11.740Z,1.00
2018-05-15T09:31:45.450Z,1.00
2018-05-15T09:34:20.347Z,1.00
2018-05-15T09:36:55.498Z,1.00
2018-05-15T09:39:30.098Z,1.00
2018-05-15T09:42:03.951Z,1.00
2018-05-15T09:44:38.349Z,1.00
2018-05-15T09:47:13.081Z,1.00
2018-05-15T09:49:46.744Z,1.00
2018-05-15T09:52:21.712Z,1.00
2018-05-15T09:54:56.017Z,1.00
2018-05-15T09:57:33.030Z,1.00
2018-05-15T10:00:08.690Z,1.00
2018-05-15T10:02:42.798Z,1.00
2018-05-15T10:05:17.556Z,1.00
2018-05-15T10:07:52.443Z,1.00
2018-05-15T10:10:28.881Z,1.00
2018-05-15T10:13:02.949Z,1.00
2018-05-15T10:15:39.418Z,1.00
2018-05-15T10:18:17.523Z,1.00
2018-05-15T10:20:54.731Z,1.00
2018-05-15T10:23:33.046Z,1.00
2018-05-15T10:26:07.165Z,1.00
2018-05-15T10:28:42.515Z,1.00
2018-05-15T10:31:16.192Z,1.00
2018-05-15T10:33:50.029Z,1.00
2018-05-15T10:36:24.896Z,1.00
2018-05-15T10:38:58.543Z,1.00
2018-05-15T10:41:33.362Z,1.00
2018-05-15T10:44:07.122Z,1.00
2018-05-15T10:46:41.349Z,1.00
2018-05-15T10:49:15.078Z,1.00
2018-05-15T10:51:50.524Z,1.00
2018-05-15T10:54:26.781Z,1.00
2018-05-15T10:57:02.020Z,1.00
2018-05-15T10:59:38.859Z,1.00
2018-05-15T11:02:15.041Z,1.00
2018-05-15T11:04:51.534Z,1.00
2018-05-15T11:07:26.690Z,1.00
2018-05-15T11:10:02.828Z,1.00
2018-05-15T11:12:38.116Z,1.00
2018-05-15T11:15:13.004Z,1.00
2018-05-15T11:17:47.982Z,1.00
2018-05-15T11:20:35.358Z,1.00
2018-05-15T11:23:21.723Z,1.00
2018-05-15T11:25:58.695Z,1.00
2018-05-15T11:28:33.933Z,1.00
2018-05-15T11:31:09.131Z,1.00
2018-05-15T11:33:43.851Z,1.00
2018-05-15T11:36:18.927Z,1.00
2018-05-15T11:38:53.410Z,1.00
2018-05-15T11:41:27.242Z,1.00
2018-05-15T11:44:03.857Z,1.00
2018-05-15T11:46:38.777Z,1.00
2018-05-15T11:49:14.182Z,1.00
2018-05-15T11:51:50.359Z,1.00
2018-05-15T11:54:23.415Z,1.00
2018-05-15T11:56:58.784Z,1.00
2018-05-15T11:59:34.102Z,1.00
2018-05-15T12:02:08.303Z,1.00
2018-05-15T12:04:43.606Z,1.00
2018-05-15T12:07:17.406Z,1.00
2018-05-15T12:09:51.566Z,1.00
2018-05-15T12:12:26.598Z,1.00
2018-05-15T12:15:00.366Z,1.00
2018-05-15T12:17:35.667Z,1.00
2018-05-15T12:20:09.263Z,1.00
2018-05-15T12:22:44.117Z,1.00
2018-05-15T12:25:19.042Z,1.00
2018-05-15T12:27:52.662Z,1.00
2018-05-15T12:30:28.107Z,1.00
2018-05-15T12:33:03.560Z,1.00
2018-05-15T12:35:37.688Z,1.00
2018-05-15T12:38:13.477Z,1.00
2018-05-15T12:40:49.417Z,1.00
2018-05-15T12:43:24.137Z,1.00
2018-05-15T12:45:59.037Z,1.00
2018-05-15T12:48:33.764Z,1.00
2018-05-15T12:51:08.641Z,1.00
2018-05-15T12:53:44.033Z,1.00
2018-05-15T12:56:18.431Z,1.00
2018-05-15T12:58:52.254Z,1.00
2018-05-15T13:01:27.002Z,1.00
2018-05-15T13:04:00.774Z,1.00
2018-05-15T13:06:34.594Z,1.00
2018-05-15T13:09:08.199Z,1.00
2018-05-15T13:11:41.859Z,1.00
2018-05-15T13:14:15.748Z,1.00
2018-05-15T13:16:51.649Z,1.00
2018-05-15T13:19:25.447Z,1.00
2018-05-15T13:22:00.291Z,1.00
2018-05-15T13:24:35.510Z,1.00
2018-05-15T13:27:10.063Z,1.00
2018-05-15T13:29:43.874Z,1.00
2018-05-15T13:32:17.543Z,1.00
2018-05-15T13:34:51.245Z,1.00
2018-05-15T13:37:26.655Z,1.00
2018-05-15T13:40:01.448Z,1.00
2018-05-15T13:42:35.364Z,1.00
2018-05-15T13:45:10.136Z,1.00
2018-05-15T13:47:44.065Z,1.00
2018-05-15T13:50:17.970Z,1.00
2018-05-15T13:52:53.743Z,1.00
2018-05-15T13:55:27.478Z,1.00
2018-05-15T13:58:02.436Z,1.00
2018-05-15T14:00:36.136Z,1.00
2018-05-15T14:03:16.968Z,1.00
2018-05-15T14:05:50.811Z,1.00
2018-05-15T14:08:25.342Z,1.00
2018-05-15T14:10:59.111Z,1.00
2018-05-15T14:13:32.766Z,1.00
2018-05-15T14:16:07.468Z,1.00
2018-05-15T14:18:41.251Z,1.00
2018-05-15T14:21:15.815Z,1.00
2018-05-15T14:23:51.052Z,1.00
2018-05-15T14:26:24.677Z,1.00
2018-05-15T14:28:59.752Z,1.00
2018-05-15T14:31:34.140Z,1.00
2018-05-15T14:34:08.260Z,1.00
2018-05-15T14:36:42.035Z,1.00
2018-05-15T14:39:17.093Z,1.00
2018-05-15T14:42:04.865Z,1.00
2018-05-15T14:44:39.073Z,1.00
2018-05-15T14:47:15.863Z,1.00
2018-05-15T14:49:54.721Z,1.00
2018-05-15T14:52:30.135Z,1.00
2018-05-15T14:55:05.840Z,1.00
2018-05-15T14:57:41.351Z,1.00
2018-05-15T15:00:15.469Z,1.00
2018-05-15T15:02:49.927Z,1.00
2018-05-15T15:05:23.713Z,1.00
2018-05-15T15:07:58.529Z,1.00
2018-05-15T15:10:34.339Z,1.00
2018-05-15T15:13:15.678Z,1.00
2018-05-15T15:18:29.693Z,1.00
2018-05-15T15:21:04.288Z,1.00
2018-05-15T15:23:38.122Z,1.00
2018-05-15T15:26:12.061Z,1.00
2018-05-15T15:28:45.896Z,1.00
2018-05-15T15:31:20.651Z,1.00
2018-05-15T15:33:55.354Z,1.00
2018-05-15T15:36:28.983Z,1.00
2018-05-15T15:39:03.556Z,1.00
2018-05-15T15:41:38.313Z,1.00
2018-05-15T15:44:12.843Z,1.00
2018-05-15T15:46:46.462Z,1.00
2018-05-15T15:49:21.954Z,1.00
2018-05-15T15:51:56.512Z,1.00
2018-05-15T15:54:32.258Z,1.00
2018-05-15T15:57:08.478Z,1.00
2018-05-15T15:59:44.297Z,1.00
2018-05-15T16:02:19.680Z,1.00
2018-05-15T16:04:55.298Z,1.00
2018-05-15T16:07:30.705Z,1.00
2018-05-15T16:10:06.090Z,1.00
2018-05-15T16:12:43.131Z,1.00
2018-05-15T16:15:20.507Z,1.00
2018-05-15T16:18:09.809Z,1.00
2018-05-15T16:20:44.334Z,1.00
2018-05-15T16:26:27.828Z,1.00
2018-05-15T16:29:03.109Z,1.00
2018-05-15T16:31:37.797Z,1.00
2018-05-15T16:34:11.557Z,1.00
2018-05-15T16:36:46.972Z,1.00
2018-05-15T16:39:21.339Z,1.00
2018-05-15T16:41:55.151Z,1.00
2018-05-15T16:44:28.851Z,1.00
2018-05-15T16:47:04.585Z,1.00
2018-05-15T16:49:45.694Z,1.00
2018-05-15T16:52:19.486Z,1.00
2018-05-15T16:54:54.247Z,1.00
2018-05-15T16:57:28.023Z,1.00
2018-05-15T17:00:02.668Z,1.00
2018-05-15T17:02:36.420Z,1.00
2018-05-15T17:05:11.652Z,1.00
2018-05-15T17:07:47.685Z,1.00
2018-05-15T17:10:21.309Z,1.00
2018-05-15T17:12:55.735Z,1.00
2018-05-15T17:15:32.047Z,1.00
2018-05-15T17:18:06.265Z,1.00
2018-05-15T17:20:40.030Z,1.00
2018-05-15T17:23:14.575Z,1.00
2018-05-15T17:25:48.170Z,1.00
2018-05-15T17:28:22.043Z,1.00
2018-05-15T17:30:56.428Z,1.00
2018-05-15T17:33:31.193Z,1.00
2018-05-15T17:36:05.577Z,1.00
2018-05-15T17:38:39.348Z,1.00
2018-05-15T17:41:14.466Z,1.00
2018-05-15T17:43:49.047Z,1.00
2018-05-15T17:46:25.465Z,1.00
2018-05-15T17:48:59.759Z,1.00
2018-05-15T17:51:33.449Z,8.60
2018-05-15T17:54:07.167Z,12.60
2018-05-15T17:56:43.686Z,17.00
2018-05-15T17:59:19.040Z,21.00
2018-05-15T18:02:02.735Z,19.90
2018-05-15T18:07:18.135Z,25.80
2018-05-15T18:09:53.050Z,23.20
2018-05-15T18:12:26.797Z,22.20
2018-05-15T18:15:02.800Z,22.10
2018-05-15T18:17:40.527Z,23.20
2018-05-15T18:20:16.245Z,22.10
2018-05-15T18:22:52.699Z,22.00
2018-05-15T18:25:26.340Z,22.20
2018-05-15T18:28:00.099Z,22.40
2018-05-15T18:30:33.894Z,21.00
2018-05-15T18:33:07.596Z,20.90
2018-05-15T18:35:42.195Z,21.90
2018-05-15T18:38:15.908Z,21.90
2018-05-15T18:40:49.728Z,20.90
2018-05-15T18:43:24.860Z,21.40
2018-05-15T18:45:58.559Z,21.40
2018-05-15T18:48:33.021Z,21.20
2018-05-15T18:51:06.742Z,21.20
2018-05-15T18:53:40.565Z,20.80
2018-05-15T18:56:15.331Z,21.10
2018-05-15T18:58:49.940Z,20.90
2018-05-15T19:01:23.589Z,20.90
2018-05-15T19:03:57.369Z,20.60
2018-05-15T19:06:31.143Z,20.30
2018-05-15T19:09:05.683Z,21.10
2018-05-15T19:11:39.372Z,21.00
2018-05-15T19:14:13.371Z,21.10
2018-05-15T19:16:47.111Z,21.00
2018-05-15T19:19:21.302Z,20.10
2018-05-15T19:21:55.969Z,20.10
2018-05-15T19:24:34.131Z,18.20
2018-05-15T19:27:07.944Z,18.10
2018-05-15T19:29:48.605Z,18.10
2018-05-15T19:32:28.991Z,18.00
2018-05-15T19:35:03.315Z,16.20
2018-05-15T19:37:39.984Z,14.00
2018-05-15T19:40:15.929Z,14.30
2018-05-15T19:42:51.473Z,14.30
2018-05-15T19:45:27.742Z,14.50
2018-05-15T19:48:01.497Z,15.30
2018-05-15T19:50:35.707Z,16.40
2018-05-15T19:53:11.764Z,23.20
2018-05-15T19:55:46.585Z,23.20
2018-05-15T19:58:21.763Z,29.90
2018-05-15T20:00:56.429Z,32.60
2018-05-15T20:03:31.131Z,31.90
2018-05-15T20:06:05.568Z,34.60
2018-05-15T20:08:39.360Z,42.70
2018-05-15T20:11:13.829Z,43.00
2018-05-15T20:13:51.275Z,39.60
2018-05-15T20:16:26.791Z,32.90
2018-05-15T20:19:00.500Z,32.70
2018-05-15T20:21:35.069Z,29.80
2018-05-15T20:24:08.776Z,29.80
2018-05-15T20:26:43.903Z,33.60
2018-05-15T20:29:19.154Z,32.70
2018-05-15T20:31:54.942Z,34.40
2018-05-15T20:34:29.111Z,34.10
2018-05-15T20:37:04.016Z,35.10
2018-05-15T20:39:39.037Z,37.00
2018-05-15T20:42:13.712Z,34.60
2018-05-15T20:44:47.907Z,37.70
2018-05-15T20:47:22.772Z,38.90
2018-05-15T20:49:56.581Z,40.00
2018-05-15T20:52:30.876Z,42.90
2018-05-15T20:55:04.547Z,46.20
2018-05-15T20:57:38.283Z,52.50
2018-05-15T21:00:15.158Z,56.50
2018-05-15T21:02:48.908Z,60.00
2018-05-15T21:05:24.456Z,61.40
2018-05-15T21:08:00.390Z,70.00
2018-05-15T21:10:36.064Z,70.50
2018-05-15T21:13:11.741Z,70.10
2018-05-15T21:15:50.956Z,69.70
2018-05-15T21:18:25.756Z,70.50
2018-05-15T21:20:59.627Z,69.40
2018-05-15T21:23:33.425Z,69.80
2018-05-15T21:26:07.072Z,69.60
2018-05-15T21:28:42.269Z,70.40
2018-05-15T21:34:00.207Z,70.00
2018-05-15T21:36:34.853Z,70.10
2018-05-15T21:39:09.470Z,67.80
2018-05-15T21:41:43.117Z,67.80
2018-05-15T21:44:17.907Z,68.00
2018-05-15T21:46:52.367Z,70.70
2018-05-15T21:49:26.020Z,70.70
2018-05-15T21:52:01.248Z,60.30
2018-05-15T21:54:36.749Z,62.10
2018-05-15T21:57:11.911Z,61.90
2018-05-15T21:59:47.333Z,62.60
2018-05-15T22:02:24.291Z,62.60
2018-05-15T22:04:59.008Z,61.90
2018-05-15T22:07:32.720Z,61.70
2018-05-15T22:10:07.292Z,62.60
2018-05-15T22:12:53.104Z,63.70
2018-05-15T22:15:38.955Z,63.60
2018-05-15T22:18:25.258Z,63.90
2018-05-15T22:21:11.610Z,66.30
2018-05-15T22:23:47.535Z,64.90
2018-05-15T22:26:24.599Z,62.80
2018-05-15T22:29:00.536Z,62.60
2018-05-15T22:31:35.503Z,64.60
2018-05-15T22:34:15.552Z,65.40
2018-05-15T22:36:49.273Z,65.80
2018-05-15T22:39:22.898Z,63.20
2018-05-15T22:41:56.757Z,61.00
2018-05-15T22:44:31.225Z,62.30
2018-05-15T22:47:05.544Z,64.30
2018-05-15T22:49:39.185Z,66.50
2018-05-15T22:52:17.092Z,65.60
2018-05-15T22:54:51.561Z,69.40
2018-05-15T22:57:25.780Z,69.40
2018-05-15T23:00:01.413Z,70.60
2018-05-15T23:02:39.791Z,73.30
2018-05-15T23:05:15.762Z,74.10
2018-05-15T23:07:50.472Z,75.30
2018-05-15T23:10:26.711Z,79.10
2018-05-15T23:13:03.344Z,78.40
2018-05-15T23:15:37.065Z,75.80
2018-05-15T23:18:10.671Z,75.80
2018-05-15T23:20:45.247Z,76.70
2018-05-15T23:23:24.147Z,77.40
2018-05-15T23:26:01.045Z,78.00
2018-05-15T23:28:35.724Z,79.10
2018-05-15T23:31:09.460Z,79.10
2018-05-15T23:33:43.274Z,79.30
2018-05-15T23:36:18.615Z,79.70
2018-05-15T23:38:52.416Z,80.00
2018-05-15T23:41:27.075Z,80.20
2018-05-15T23:44:00.900Z,80.10
2018-05-15T23:46:34.701Z,77.80
2018-05-15T23:49:09.130Z,77.60
2018-05-15T23:51:43.903Z,77.50
2018-05-15T23:54:22.057Z,78.90
2018-05-15T23:56:55.937Z,78.90
2018-05-15T23:59:33.071Z,76.00
